Time;durP1;ratioP1;P1;durP2;ratioP2;P2;SDS_P1;SDS_P2;PMS_P1;PMS_P2;Temp;Humidity;BMP_temperature;BMP_pressure;BME280_temperature;BME280_humidity;BME280_pressure;Samples;Min_cycle;Max_cycle;Signal;HPM_P1;HPM_P2
2022/12/03 00:01:43;;;;;;;60.90;25.55;;;-1.90;99.90;;;;;;5054033;28;20831;-80
2022/12/03 00:04:08;;;;;;;57.70;27.30;;;-2.00;99.90;;;;;;5053847;28;20479;-80
2022/12/03 00:06:34;;;;;;;63.95;25.05;;;-1.90;99.90;;;;;;5055229;28;20099;-80
2022/12/03 00:08:59;;;;;;;56.08;24.85;;;-1.90;99.90;;;;;;5053817;28;20032;-80
2022/12/03 00:11:25;;;;;;;66.20;26.80;;;-2.00;99.90;;;;;;5053575;28;20047;-80
2022/12/03 00:13:50;;;;;;;59.50;24.27;;;-2.00;99.90;;;;;;5053683;28;20109;-80
2022/12/03 00:16:16;;;;;;;64.30;24.48;;;-2.00;99.90;;;;;;5053788;28;20044;-80
2022/12/03 00:18:42;;;;;;;55.03;24.02;;;-1.90;99.90;;;;;;5052537;28;20521;-80
2022/12/03 00:21:07;;;;;;;52.58;24.58;;;-1.90;99.90;;;;;;5054794;28;20039;-81
2022/12/03 00:23:33;;;;;;;55.92;24.38;;;-1.90;99.90;;;;;;5055003;28;20025;-81
2022/12/03 00:25:59;;;;;;;52.35;24.88;;;-1.90;99.90;;;;;;5054797;28;20051;-81
2022/12/03 00:28:24;;;;;;;55.88;24.63;;;-1.90;99.90;;;;;;5054919;28;20471;-81
2022/12/03 00:30:52;;;;;;;58.28;23.38;;;-1.90;99.90;;;;;;5053329;28;20064;-81
2022/12/03 00:33:19;;;;;;;55.75;25.08;;;-1.80;99.90;;;;;;5045353;28;20108;-81
2022/12/03 00:35:45;;;;;;;51.40;24.45;;;-1.80;99.90;;;;;;5033622;28;20080;-81
2022/12/03 00:38:10;;;;;;;65.40;26.17;;;-1.90;99.90;;;;;;5034865;28;20442;-80
2022/12/03 00:40:36;;;;;;;57.30;24.63;;;-1.80;99.90;;;;;;5049788;28;20370;-80
2022/12/03 00:43:02;;;;;;;61.15;25.67;;;-1.80;99.90;;;;;;5053115;28;20028;-81
2022/12/03 00:45:27;;;;;;;53.58;26.52;;;-1.90;99.90;;;;;;5054242;28;20049;-81
2022/12/03 00:47:53;;;;;;;57.67;24.55;;;-1.80;99.90;;;;;;5054557;28;20021;-81
2022/12/03 00:50:18;;;;;;;61.75;24.88;;;-1.90;99.90;;;;;;5052995;28;20441;-82
2022/12/03 00:52:44;;;;;;;61.65;25.77;;;-1.80;99.90;;;;;;5053025;28;20021;-81
2022/12/03 00:55:10;;;;;;;62.22;27.10;;;-1.80;99.90;;;;;;5053000;28;20032;-82
2022/12/03 00:57:35;;;;;;;55.53;25.90;;;-1.80;99.90;;;;;;5054030;28;20063;-82
2022/12/03 01:00:01;;;;;;;60.28;26.02;;;-1.80;99.90;;;;;;5054252;28;20035;-80
2022/12/03 01:02:27;;;;;;;64.43;25.15;;;-1.80;99.90;;;;;;5053748;28;20088;-80
2022/12/03 01:04:52;;;;;;;56.35;24.55;;;-1.80;99.90;;;;;;5054188;28;20471;-80
2022/12/03 01:07:18;;;;;;;61.67;24.67;;;-1.70;99.90;;;;;;5053016;28;20029;-80
2022/12/03 01:09:44;;;;;;;58.17;24.58;;;-1.70;99.90;;;;;;5052896;28;20025;-80
2022/12/03 01:12:10;;;;;;;53.10;25.38;;;-1.70;99.90;;;;;;5052770;28;20108;-81
2022/12/03 01:14:36;;;;;;;61.67;24.77;;;-1.70;99.90;;;;;;5052794;28;20502;-80
2022/12/03 01:17:02;;;;;;;56.20;27.52;;;-1.70;99.90;;;;;;5052637;28;20017;-80
2022/12/03 01:19:27;;;;;;;57.13;25.48;;;-1.70;99.90;;;;;;5053936;28;20029;-80
2022/12/03 01:21:54;;;;;;;69.15;27.98;;;-1.80;99.90;;;;;;5052743;28;20502;-81
2022/12/03 01:24:20;;;;;;;68.65;26.92;;;-1.80;99.90;;;;;;5052599;28;20048;-82
2022/12/03 01:26:46;;;;;;;51.60;25.75;;;-1.80;99.90;;;;;;5052545;28;20478;-80
2022/12/03 01:29:11;;;;;;;58.97;24.63;;;-1.80;99.90;;;;;;5052643;28;20028;-81
2022/12/03 01:34:21;;;;;;;57.90;24.45;;;-1.80;99.90;;;;;;5053833;28;20043;-80
2022/12/03 01:36:46;;;;;;;66.32;25.98;;;-1.80;99.90;;;;;;5052321;28;20017;-80
2022/12/03 01:39:12;;;;;;;67.38;26.10;;;-1.80;99.90;;;;;;5052368;28;20017;-81
2022/12/03 01:41:38;;;;;;;58.90;24.45;;;-1.80;99.90;;;;;;5052259;28;20235;-81
2022/12/03 01:44:36;;;;;;;59.28;25.77;;;-1.80;99.90;;;;;;5053413;28;20053;-81
2022/12/03 01:47:05;;;;;;;59.60;26.90;;;-1.80;99.90;;;;;;5050214;28;20079;-81
2022/12/03 01:49:39;;;;;;;62.50;26.23;;;-1.80;99.90;;;;;;5053102;28;20482;-81
2022/12/03 01:52:05;;;;;;;65.32;26.88;;;-1.80;99.90;;;;;;5052135;28;20056;-80
2022/12/03 01:54:38;;;;;;;60.47;26.83;;;-1.80;99.90;;;;;;5053473;28;20059;-81
2022/12/03 01:57:10;;;;;;;59.92;25.60;;;-1.80;99.90;;;;;;5053279;28;20486;-81
2022/12/03 01:59:38;;;;;;;62.33;25.83;;;-1.70;99.90;;;;;;5065772;28;20020;-81
2022/12/03 02:02:22;;;;;;;60.67;26.90;;;-1.70;99.90;;;;;;5072013;28;20025;-80
2022/12/03 02:04:48;;;;;;;66.00;26.13;;;-1.70;99.90;;;;;;5073227;28;20389;-80
2022/12/03 02:07:30;;;;;;;62.92;26.63;;;-1.80;99.90;;;;;;5072084;28;20395;-80
2022/12/03 02:09:58;;;;;;;54.17;23.98;;;-1.80;99.90;;;;;;5073450;28;20020;-80
2022/12/03 02:12:30;;;;;;;60.72;26.17;;;-1.70;99.90;;;;;;5060184;28;20033;-80
2022/12/03 02:14:57;;;;;;;65.15;26.75;;;-1.80;99.90;;;;;;5051128;28;20017;-80
2022/12/03 02:17:22;;;;;;;57.05;25.42;;;-1.70;99.90;;;;;;5051800;28;20013;-80
2022/12/03 02:19:48;;;;;;;60.72;27.42;;;-1.70;99.90;;;;;;5051699;28;20022;-80
2022/12/03 02:22:36;;;;;;;61.90;27.98;;;-1.70;99.90;;;;;;5053027;28;20025;-80
2022/12/03 02:25:19;;;;;;;55.75;26.38;;;-1.70;99.90;;;;;;5051776;28;20471;-80
2022/12/03 02:27:46;;;;;;;61.67;27.25;;;-1.70;99.90;;;;;;5052802;28;20025;-79
2022/12/03 02:30:14;;;;;;;59.67;27.75;;;-1.70;99.90;;;;;;5053009;28;20100;-81
2022/12/03 02:32:40;;;;;;;64.20;27.20;;;-1.70;99.90;;;;;;5052810;28;20028;-80
2022/12/03 02:35:11;;;;;;;62.97;26.33;;;-1.70;99.90;;;;;;5052738;28;20025;-81
2022/12/03 02:37:37;;;;;;;62.42;25.40;;;-1.70;99.90;;;;;;5051645;28;20067;-80
2022/12/03 02:40:08;;;;;;;63.20;26.02;;;-1.70;99.90;;;;;;5052924;28;20033;-80
2022/12/03 02:42:34;;;;;;;60.35;28.88;;;-1.70;99.90;;;;;;5053049;28;20082;-81
2022/12/03 02:45:21;;;;;;;66.47;26.70;;;-1.80;99.90;;;;;;5051529;28;20045;-81
2022/12/03 02:47:51;;;;;;;73.07;28.23;;;-1.70;99.90;;;;;;5050863;28;20546;-80
2022/12/03 02:50:20;;;;;;;74.13;29.55;;;-1.70;99.90;;;;;;5051544;28;20036;-80
2022/12/03 02:52:47;;;;;;;81.57;30.50;;;-1.70;99.90;;;;;;5051403;28;20052;-80
2022/12/03 02:55:15;;;;;;;75.47;29.67;;;-1.70;99.90;;;;;;5051506;28;20430;-80
2022/12/03 02:57:44;;;;;;;81.10;29.83;;;-1.70;99.90;;;;;;5051238;28;20055;-80
2022/12/03 03:00:10;;;;;;;91.47;32.25;;;-1.70;99.90;;;;;;5070070;28;20021;-80
2022/12/03 03:02:37;;;;;;;74.65;30.70;;;-1.70;99.90;;;;;;5072635;28;20051;-80
2022/12/03 03:05:06;;;;;;;79.47;30.80;;;-1.70;99.90;;;;;;5071340;28;20044;-80
2022/12/03 03:07:32;;;;;;;94.03;32.83;;;-1.70;99.90;;;;;;5071268;28;20025;-80
2022/12/03 03:09:59;;;;;;;89.63;32.63;;;-1.70;99.90;;;;;;5072637;28;20050;-81
2022/12/03 03:12:25;;;;;;;74.78;31.77;;;-1.80;99.90;;;;;;5059036;28;20044;-80
2022/12/03 03:14:51;;;;;;;83.55;32.35;;;-1.70;99.90;;;;;;5051370;28;20025;-80
2022/12/03 03:17:17;;;;;;;82.32;31.67;;;-1.70;99.90;;;;;;5051222;28;20029;-80
2022/12/03 03:19:43;;;;;;;91.88;31.23;;;-1.70;99.90;;;;;;5051263;28;20029;-81
2022/12/03 03:22:10;;;;;;;84.30;31.05;;;-1.80;99.90;;;;;;5051346;28;20112;-80
2022/12/03 03:24:36;;;;;;;76.53;29.48;;;-1.80;99.90;;;;;;5051058;28;20017;-81
2022/12/03 03:27:01;;;;;;;84.68;33.58;;;-1.80;99.90;;;;;;5054745;28;20482;-80
2022/12/03 03:29:27;;;;;;;81.10;32.38;;;-1.80;99.90;;;;;;5054596;28;20025;-80
2022/12/03 03:31:53;;;;;;;84.32;28.38;;;-1.80;99.90;;;;;;5054602;28;20033;-80
2022/12/03 03:34:19;;;;;;;92.72;33.22;;;-1.80;99.90;;;;;;5054583;28;20031;-81
2022/12/03 03:36:45;;;;;;;93.85;32.28;;;-1.80;99.90;;;;;;5054722;28;20036;-81
2022/12/03 03:39:11;;;;;;;79.38;29.15;;;-1.80;99.90;;;;;;5054497;28;20021;-81
2022/12/03 03:41:37;;;;;;;95.50;34.78;;;-1.80;99.90;;;;;;5054615;28;20025;-82
2022/12/03 03:44:06;;;;;;;96.80;34.05;;;-1.80;99.90;;;;;;5054209;28;20036;-82
2022/12/03 03:46:32;;;;;;;96.72;33.38;;;-1.80;99.90;;;;;;5054485;28;20025;-82
2022/12/03 03:48:58;;;;;;;90.38;31.85;;;-1.80;99.90;;;;;;5054442;28;20025;-80
2022/12/03 03:51:24;;;;;;;107.32;37.25;;;-1.80;99.90;;;;;;5055548;28;20059;-82
2022/12/03 03:53:51;;;;;;;93.05;35.47;;;-1.80;99.90;;;;;;5054403;28;20032;-81
2022/12/03 03:56:19;;;;;;;100.78;39.58;;;-1.80;99.90;;;;;;5054428;28;20029;-81
2022/12/03 03:58:45;;;;;;;100.43;37.53;;;-1.80;99.90;;;;;;5061312;28;20102;-82
2022/12/03 04:01:12;;;;;;;92.68;32.20;;;-1.80;99.90;;;;;;5074281;28;20059;-80
2022/12/03 04:03:38;;;;;;;99.32;33.75;;;-1.80;99.90;;;;;;5075412;28;20063;-82
2022/12/03 04:06:04;;;;;;;96.80;35.00;;;-1.80;99.90;;;;;;5075521;28;20032;-82
2022/12/03 04:08:30;;;;;;;90.55;33.03;;;-1.70;99.90;;;;;;5074060;28;20099;-82
2022/12/03 04:13:39;;;;;;;83.13;32.70;;;-1.70;99.90;;;;;;5035544;28;20044;-81
2022/12/03 04:16:06;;;;;;;88.65;33.85;;;-1.70;99.90;;;;;;5035458;28;20029;-80
2022/12/03 04:18:43;;;;;;;94.50;34.95;;;-1.70;99.90;;;;;;5033874;28;20036;-80
2022/12/03 04:24:04;;;;;;;91.82;34.25;;;-1.70;99.90;;;;;;5035425;28;20037;-80
2022/12/03 04:29:13;;;;;;;95.45;31.58;;;-1.70;99.90;;;;;;5035289;28;20041;-80
2022/12/03 04:37:08;;;;;;;83.95;32.17;;;-1.70;99.90;;;;;;5034247;28;20037;-81
2022/12/03 04:39:34;;;;;;;89.28;31.63;;;-1.70;99.90;;;;;;5033433;28;20463;-81
2022/12/03 04:41:59;;;;;;;93.82;34.45;;;-1.80;99.90;;;;;;5034856;28;20029;-80
2022/12/03 04:44:35;;;;;;;89.75;30.27;;;-1.70;99.90;;;;;;5034471;28;20048;-81
2022/12/03 04:47:12;;;;;;;97.65;35.90;;;-1.70;99.90;;;;;;5033542;28;20021;-80
2022/12/03 04:49:44;;;;;;;95.95;34.58;;;-1.80;99.90;;;;;;5033278;28;20033;-82
2022/12/03 04:52:11;;;;;;;99.10;35.85;;;-1.80;99.90;;;;;;5034645;28;20034;-81
2022/12/03 04:54:37;;;;;;;97.50;32.67;;;-1.70;99.90;;;;;;5033235;28;20361;-81
2022/12/03 04:57:03;;;;;;;106.47;33.90;;;-1.70;99.90;;;;;;5033197;28;20494;-80
2022/12/03 04:59:29;;;;;;;91.88;32.65;;;-1.70;99.90;;;;;;5061706;28;20024;-81
2022/12/03 05:01:55;;;;;;;103.75;35.60;;;-1.70;99.90;;;;;;5074371;28;20051;-80
2022/12/03 05:04:20;;;;;;;101.43;33.67;;;-1.70;99.90;;;;;;5072846;28;20033;-81
2022/12/03 05:06:46;;;;;;;100.32;32.63;;;-1.70;99.90;;;;;;5074251;28;20095;-81
2022/12/03 05:09:12;;;;;;;96.75;36.03;;;-1.70;99.90;;;;;;5072584;28;20017;-82
2022/12/03 05:11:39;;;;;;;92.38;32.33;;;-1.70;99.90;;;;;;5066739;28;20124;-80
2022/12/03 05:14:05;;;;;;;87.95;31.80;;;-1.70;99.90;;;;;;5052731;28;20052;-80
2022/12/03 05:16:30;;;;;;;106.45;34.85;;;-1.70;99.90;;;;;;5052831;28;20460;-81
2022/12/03 05:18:56;;;;;;;97.85;34.45;;;-1.70;99.90;;;;;;5054008;28;20461;-80
2022/12/03 05:21:22;;;;;;;87.03;31.65;;;-1.70;99.90;;;;;;5052711;28;20021;-80
2022/12/03 05:23:47;;;;;;;81.43;31.33;;;-1.70;99.90;;;;;;5052705;28;20017;-80
2022/12/03 05:26:13;;;;;;;83.90;30.13;;;-1.70;99.90;;;;;;5053950;28;20021;-80
2022/12/03 05:28:39;;;;;;;74.18;27.98;;;-1.80;99.90;;;;;;5052446;28;20056;-81
2022/12/03 05:31:04;;;;;;;81.25;30.48;;;-1.80;99.90;;;;;;5052311;28;20033;-80
2022/12/03 05:33:30;;;;;;;93.13;35.25;;;-1.80;99.90;;;;;;5052585;28;20460;-81
2022/12/03 05:35:56;;;;;;;85.55;30.55;;;-1.80;99.90;;;;;;5052405;28;20028;-81
2022/12/03 05:38:21;;;;;;;85.18;32.40;;;-1.80;99.90;;;;;;5053681;28;20034;-81
2022/12/03 05:40:47;;;;;;;76.78;29.65;;;-1.80;99.90;;;;;;5053538;28;20104;-80
2022/12/03 05:43:12;;;;;;;91.97;33.78;;;-1.80;99.90;;;;;;5045929;28;20367;-80
2022/12/03 05:45:40;;;;;;;78.22;30.38;;;-1.80;99.90;;;;;;5033200;28;20506;-80
2022/12/03 05:48:09;;;;;;;82.80;29.13;;;-1.80;99.90;;;;;;5031832;28;20048;-80
2022/12/03 05:50:36;;;;;;;84.30;33.15;;;-1.80;99.90;;;;;;5031733;28;20033;-80
2022/12/03 05:53:02;;;;;;;90.65;30.75;;;-1.70;99.90;;;;;;5031971;28;20026;-80
2022/12/03 05:55:28;;;;;;;80.80;29.33;;;-1.70;99.90;;;;;;5033090;28;20020;-80
2022/12/03 05:57:54;;;;;;;91.32;31.73;;;-1.80;99.90;;;;;;5033059;28;20386;-80
2022/12/03 06:00:21;;;;;;;88.78;32.72;;;-1.80;99.90;;;;;;5058931;28;20028;-80
2022/12/03 06:02:47;;;;;;;101.28;36.42;;;-1.80;99.90;;;;;;5051592;28;20025;-80
2022/12/03 06:05:14;;;;;;;84.38;30.98;;;-1.80;99.90;;;;;;5048535;28;20017;-80
2022/12/03 06:07:40;;;;;;;82.45;31.88;;;-1.80;99.90;;;;;;5033883;28;20204;-80
2022/12/03 06:10:09;;;;;;;85.90;34.55;;;-1.80;99.90;;;;;;5033011;28;20100;-80
2022/12/03 06:12:34;;;;;;;84.00;31.63;;;-1.80;99.90;;;;;;5040302;28;20087;-80
2022/12/03 06:15:00;;;;;;;84.05;31.55;;;-1.80;99.90;;;;;;5032859;28;20029;-80
2022/12/03 06:17:26;;;;;;;91.82;32.40;;;-1.80;99.90;;;;;;5036221;28;20112;-80
2022/12/03 06:19:52;;;;;;;78.35;31.33;;;-1.90;99.90;;;;;;5051545;28;20021;-80
2022/12/03 06:22:18;;;;;;;86.38;33.33;;;-1.90;99.90;;;;;;5037222;28;20453;-81
2022/12/03 06:24:44;;;;;;;91.95;32.70;;;-1.90;99.90;;;;;;5031582;28;20033;-81
2022/12/03 06:27:10;;;;;;;93.35;36.40;;;-1.90;99.90;;;;;;5032275;28;20064;-81
2022/12/03 06:29:36;;;;;;;95.50;35.90;;;-1.80;99.90;;;;;;5031539;28;20045;-80
2022/12/03 06:32:02;;;;;;;87.00;31.48;;;-1.80;99.90;;;;;;5031390;28;20036;-80
2022/12/03 06:34:28;;;;;;;96.30;32.25;;;-1.80;99.90;;;;;;5031385;28;20140;-80
2022/12/03 06:36:54;;;;;;;105.80;32.90;;;-1.90;99.90;;;;;;5032702;28;20483;-80
2022/12/03 06:39:19;;;;;;;88.13;32.92;;;-1.80;99.90;;;;;;5032874;28;20026;-81
2022/12/03 06:41:45;;;;;;;105.00;33.60;;;-1.90;99.90;;;;;;5030828;28;20022;-80
2022/12/03 06:44:10;;;;;;;101.70;31.98;;;-1.80;99.90;;;;;;5049706;28;20064;-81
2022/12/03 06:46:36;;;;;;;90.97;33.55;;;-1.80;99.90;;;;;;5050986;28;20470;-82
2022/12/03 06:49:02;;;;;;;86.47;33.10;;;-1.80;99.90;;;;;;5051338;28;20025;-81
2022/12/03 06:51:28;;;;;;;94.80;31.00;;;-1.80;99.90;;;;;;5050896;28;20512;-80
2022/12/03 06:53:53;;;;;;;90.25;31.67;;;-1.80;99.90;;;;;;5051285;28;20057;-80
2022/12/03 06:56:37;;;;;;;89.05;33.20;;;-1.80;99.90;;;;;;5041358;28;20060;-81
2022/12/03 06:59:03;;;;;;;91.65;32.42;;;-1.70;99.90;;;;;;5044050;28;20025;-81
2022/12/03 07:01:28;;;;;;;81.88;31.13;;;-1.70;99.90;;;;;;5033908;28;20495;-81
2022/12/03 07:03:54;;;;;;;103.05;33.15;;;-1.70;99.90;;;;;;5035200;28;20025;-80
2022/12/03 07:06:20;;;;;;;92.72;32.47;;;-1.70;99.90;;;;;;5036163;28;20029;-81
2022/12/03 07:08:45;;;;;;;100.97;35.78;;;-1.70;99.90;;;;;;5035091;28;20021;-80
2022/12/03 07:13:55;;;;;;;91.97;34.83;;;-1.70;99.90;;;;;;5032597;28;20886;-81
2022/12/03 07:16:21;;;;;;;91.30;34.15;;;-1.70;99.90;;;;;;5029244;28;20482;-81
2022/12/03 07:18:47;;;;;;;94.18;33.85;;;-1.80;99.90;;;;;;5030892;28;20033;-81
2022/12/03 07:21:13;;;;;;;108.47;37.97;;;-1.70;99.90;;;;;;5029083;28;20025;-81
2022/12/03 07:23:38;;;;;;;99.45;36.03;;;-1.70;99.90;;;;;;5029369;28;20045;-81
2022/12/03 07:26:04;;;;;;;88.72;31.67;;;-1.70;99.90;;;;;;5028564;28;20036;-82
2022/12/03 07:28:29;;;;;;;94.68;31.83;;;-1.60;99.90;;;;;;5035323;28;20045;-80
2022/12/03 07:30:55;;;;;;;100.40;33.33;;;-1.60;99.90;;;;;;5035644;28;20041;-82
2022/12/03 07:33:20;;;;;;;458.58;166.23;;;-1.60;99.90;;;;;;5034467;28;20390;-82
2022/12/03 07:35:46;;;;;;;257.38;85.82;;;-1.50;99.90;;;;;;5035519;28;20026;-81
2022/12/03 07:38:14;;;;;;;154.55;54.00;;;-1.50;99.90;;;;;;5034636;28;20040;-82
2022/12/03 07:40:40;;;;;;;299.73;100.30;;;-1.40;99.90;;;;;;5033749;28;20080;-81
2022/12/03 07:43:05;;;;;;;154.80;55.85;;;-1.40;99.90;;;;;;5026771;28;20483;-80
2022/12/03 07:45:31;;;;;;;141.20;47.13;;;-1.40;99.90;;;;;;5048566;28;20061;-81
2022/12/03 07:47:57;;;;;;;98.38;34.10;;;-1.40;99.90;;;;;;5045882;28;20025;-80
2022/12/03 07:50:23;;;;;;;244.27;84.22;;;-1.40;99.90;;;;;;5044058;28;20161;-79
2022/12/03 07:52:48;;;;;;;413.90;142.80;;;-1.40;99.90;;;;;;5037146;28;20029;-79
2022/12/03 07:55:14;;;;;;;236.57;91.07;;;-1.30;99.90;;;;;;5043188;28;20909;-79
2022/12/03 07:57:39;;;;;;;209.85;77.50;;;-1.20;99.90;;;;;;5045373;28;20033;-79
2022/12/03 08:00:07;;;;;;;342.25;126.53;;;-1.20;99.90;;;;;;5043534;28;20484;-80
2022/12/03 08:02:32;;;;;;;220.90;77.90;;;-1.20;99.90;;;;;;5041846;28;20017;-80
2022/12/03 08:04:58;;;;;;;224.40;78.32;;;-1.20;99.90;;;;;;5044569;28;20053;-80
2022/12/03 08:07:23;;;;;;;265.95;93.45;;;-1.20;99.90;;;;;;5033812;28;20083;-80
2022/12/03 08:09:49;;;;;;;116.95;43.45;;;-1.20;99.90;;;;;;5034564;28;20395;-80
2022/12/03 08:12:38;;;;;;;144.55;58.85;;;-1.10;99.90;;;;;;5037239;28;20037;-79
2022/12/03 08:15:08;;;;;;;220.35;77.25;;;-1.10;99.90;;;;;;5046658;28;20037;-80
2022/12/03 08:17:35;;;;;;;127.25;45.88;;;-1.10;99.90;;;;;;5054749;28;20025;-80
2022/12/03 08:20:04;;;;;;;133.82;49.45;;;-1.00;99.90;;;;;;5054584;28;20467;-80
2022/12/03 08:22:30;;;;;;;135.13;50.45;;;-1.00;99.90;;;;;;5060587;28;20023;-80
2022/12/03 08:24:57;;;;;;;130.15;52.58;;;-1.00;99.90;;;;;;5035237;28;20816;-81
2022/12/03 08:27:23;;;;;;;92.28;35.10;;;-0.90;99.90;;;;;;5033306;28;20117;-80
2022/12/03 08:29:49;;;;;;;91.70;35.60;;;-1.00;99.90;;;;;;5053880;28;20066;-80
2022/12/03 08:32:14;;;;;;;97.43;33.33;;;-1.00;99.90;;;;;;5054380;28;20044;-81
2022/12/03 08:34:42;;;;;;;87.75;29.23;;;-1.00;99.90;;;;;;5053034;28;20029;-80
2022/12/03 08:37:19;;;;;;;89.53;32.63;;;-1.20;99.90;;;;;;5053222;28;20095;-80
2022/12/03 08:39:47;;;;;;;94.90;31.60;;;-1.20;99.90;;;;;;5053934;28;20048;-81
2022/12/03 08:42:40;;;;;;;95.57;34.88;;;-1.20;99.90;;;;;;5052955;28;20029;-80
2022/12/03 08:45:26;;;;;;;113.20;34.65;;;-1.20;99.90;;;;;;5039649;28;20053;-80
2022/12/03 08:50:41;;;;;;;96.97;33.67;;;-1.20;99.90;;;;;;5034481;28;20088;-80
2022/12/03 08:53:12;;;;;;;111.28;34.78;;;-1.10;99.90;;;;;;5033377;28;20022;-81
2022/12/03 08:55:45;;;;;;;96.43;36.03;;;-1.10;99.90;;;;;;5032365;28;20036;-81
2022/12/03 08:58:17;;;;;;;100.57;33.22;;;-1.00;99.90;;;;;;5042663;28;20450;-81
2022/12/03 09:00:47;;;;;;;96.82;35.20;;;-1.00;99.90;;;;;;5040879;28;20032;-80
2022/12/03 09:03:18;;;;;;;94.72;34.88;;;-0.90;99.90;;;;;;5034122;28;20083;-80
2022/12/03 09:05:44;;;;;;;91.13;34.38;;;-0.90;99.90;;;;;;5032979;28;20025;-81
2022/12/03 09:08:10;;;;;;;91.60;35.78;;;-0.90;99.90;;;;;;5032970;28;20612;-81
2022/12/03 09:10:35;;;;;;;92.45;32.35;;;-0.90;99.90;;;;;;5033495;28;20475;-80
2022/12/03 09:13:01;;;;;;;95.35;35.03;;;-0.90;99.90;;;;;;5033940;28;20021;-80
2022/12/03 09:15:27;;;;;;;96.47;34.25;;;-0.90;99.90;;;;;;5033961;28;20387;-81
2022/12/03 09:17:53;;;;;;;78.80;30.70;;;-0.80;99.90;;;;;;5046582;28;20068;-80
2022/12/03 09:20:19;;;;;;;92.55;32.53;;;-0.80;99.90;;;;;;5049766;28;20391;-81
2022/12/03 09:22:44;;;;;;;94.53;32.85;;;-0.80;99.90;;;;;;5048877;28;20021;-80
2022/12/03 09:25:10;;;;;;;88.70;33.40;;;-0.80;99.90;;;;;;5046955;28;20509;-80
2022/12/03 09:27:36;;;;;;;83.00;32.08;;;-0.80;99.90;;;;;;5044870;28;20049;-80
2022/12/03 09:30:02;;;;;;;101.75;34.63;;;-0.80;99.90;;;;;;5051082;28;20023;-80
2022/12/03 09:32:28;;;;;;;87.72;34.85;;;-0.70;99.90;;;;;;5052912;28;20475;-81
2022/12/03 09:34:53;;;;;;;103.43;34.03;;;-0.70;99.90;;;;;;5051550;28;20066;-80
2022/12/03 09:37:20;;;;;;;104.55;34.80;;;-0.70;99.90;;;;;;5051303;28;20486;-80
2022/12/03 09:39:46;;;;;;;92.43;34.83;;;-0.70;99.90;;;;;;5051406;28;20068;-80
2022/12/03 09:42:12;;;;;;;92.03;32.47;;;-0.70;99.90;;;;;;5052772;28;20056;-81
2022/12/03 09:44:38;;;;;;;106.43;34.60;;;-0.80;99.90;;;;;;5051325;28;20079;-80
2022/12/03 09:47:05;;;;;;;106.57;38.75;;;-0.80;99.90;;;;;;5051719;28;20053;-80
2022/12/03 09:49:32;;;;;;;118.10;37.17;;;-0.80;99.90;;;;;;5051751;28;20100;-80
2022/12/03 09:52:00;;;;;;;105.13;35.60;;;-0.90;99.90;;;;;;5050958;28;20029;-79
2022/12/03 09:54:27;;;;;;;108.63;36.33;;;-0.80;99.90;;;;;;5051103;28;20029;-79
2022/12/03 09:56:55;;;;;;;98.40;35.97;;;-0.80;99.90;;;;;;5050476;28;20013;-80
2022/12/03 09:59:25;;;;;;;103.72;36.03;;;-0.70;99.90;;;;;;5065873;28;20029;-79
2022/12/03 10:01:51;;;;;;;92.75;32.15;;;-0.60;99.90;;;;;;5072071;28;20207;-80
2022/12/03 10:04:17;;;;;;;80.53;30.27;;;-0.60;99.90;;;;;;5072547;28;20016;-78
2022/12/03 10:06:43;;;;;;;91.25;33.65;;;-0.60;99.90;;;;;;5072156;28;20032;-81
2022/12/03 10:09:10;;;;;;;94.65;33.25;;;-0.60;99.90;;;;;;5072815;28;20021;-80
2022/12/03 10:11:36;;;;;;;84.47;33.92;;;-0.50;99.90;;;;;;5072440;28;20094;-79
2022/12/03 10:14:03;;;;;;;85.82;31.23;;;-0.50;99.90;;;;;;5073048;28;20497;-78
2022/12/03 10:16:29;;;;;;;95.93;33.33;;;-0.40;99.90;;;;;;5073674;28;20035;-79
2022/12/03 10:18:58;;;;;;;88.75;36.55;;;-0.40;99.90;;;;;;5058487;28;20029;-79
2022/12/03 10:21:37;;;;;;;85.03;32.55;;;-0.40;99.90;;;;;;5053352;28;20025;-81
2022/12/03 10:24:22;;;;;;;84.05;34.80;;;-0.30;99.90;;;;;;5035263;28;20017;-81
2022/12/03 10:26:51;;;;;;;90.88;32.03;;;-0.30;99.90;;;;;;5051090;28;20151;-80
2022/12/03 10:29:20;;;;;;;87.20;33.20;;;-0.30;99.90;;;;;;5041105;28;20052;-80
2022/12/03 10:31:55;;;;;;;100.07;36.17;;;-0.30;99.90;;;;;;5044553;28;20037;-80
2022/12/03 10:34:40;;;;;;;92.03;34.75;;;-0.20;99.90;;;;;;5032151;28;20033;-80
2022/12/03 10:37:19;;;;;;;87.45;34.75;;;-0.10;99.90;;;;;;5052951;28;20044;-79
2022/12/03 10:39:57;;;;;;;80.63;31.80;;;-0.10;99.90;;;;;;5051859;28;20032;-80
2022/12/03 10:42:28;;;;;;;79.55;29.85;;;-0.10;99.90;;;;;;5054856;28;20041;-79
2022/12/03 10:45:14;;;;;;;95.40;34.45;;;0.00;99.90;;;;;;5056394;28;20114;-80
2022/12/03 10:48:00;;;;;;;95.15;33.50;;;-0.10;99.90;;;;;;5041899;28;20075;-80
2022/12/03 10:50:26;;;;;;;88.93;32.22;;;-0.20;99.90;;;;;;5049592;28;20025;-79
2022/12/03 10:52:52;;;;;;;100.68;37.42;;;-0.20;99.90;;;;;;5049635;28;20033;-79
2022/12/03 10:55:18;;;;;;;114.82;37.88;;;-0.20;99.90;;;;;;5040793;28;20486;-79
2022/12/03 10:57:44;;;;;;;96.35;35.38;;;-0.30;99.90;;;;;;5048473;28;20124;-79
2022/12/03 11:00:19;;;;;;;96.30;36.13;;;-0.30;99.90;;;;;;5052678;28;20025;-81
2022/12/03 11:02:46;;;;;;;94.45;33.58;;;-0.40;99.90;;;;;;5036566;28;20032;-80
2022/12/03 11:05:20;;;;;;;88.45;33.88;;;-0.30;99.90;;;;;;5043199;28;20040;-81
2022/12/03 11:07:46;;;;;;;81.47;32.78;;;-0.40;99.90;;;;;;5041849;28;20014;-81
2022/12/03 11:10:17;;;;;;;101.45;32.63;;;-0.30;99.90;;;;;;5044203;28;20094;-81
2022/12/03 11:13:22;;;;;;;87.07;33.03;;;-0.40;99.90;;;;;;5038252;28;20490;-81
2022/12/03 11:15:48;;;;;;;91.20;32.50;;;-0.40;99.90;;;;;;5042903;28;20021;-82
2022/12/03 11:18:38;;;;;;;89.85;34.35;;;-0.40;99.90;;;;;;5045227;28;20017;-81
2022/12/03 11:21:17;;;;;;;91.75;33.22;;;-0.40;99.90;;;;;;5051662;28;20040;-81
2022/12/03 11:23:43;;;;;;;96.55;32.28;;;-0.40;99.90;;;;;;5050886;28;20089;-82
2022/12/03 11:26:10;;;;;;;94.32;32.50;;;-0.50;99.90;;;;;;5050554;28;20163;-82
2022/12/03 11:28:57;;;;;;;91.60;27.95;;;-0.50;99.90;;;;;;5050576;28;20029;-82
2022/12/03 11:31:58;;;;;;;83.53;30.92;;;-0.60;99.90;;;;;;5047001;28;20500;-81
2022/12/03 11:34:46;;;;;;;92.07;31.98;;;-0.60;99.90;;;;;;5050135;28;20037;-82
2022/12/03 11:37:12;;;;;;;85.35;31.15;;;-0.70;99.90;;;;;;5050673;28;20651;-82
2022/12/03 11:39:44;;;;;;;89.47;32.72;;;-0.70;99.90;;;;;;5051805;28;20143;-82
2022/12/03 11:42:24;;;;;;;89.57;31.15;;;-0.70;99.90;;;;;;5050395;28;20432;-81
2022/12/03 11:45:08;;;;;;;94.70;35.38;;;-0.70;99.90;;;;;;5053127;28;20494;-80
2022/12/03 11:47:44;;;;;;;104.82;35.17;;;-0.60;99.90;;;;;;5045647;28;20044;-80
2022/12/03 11:50:28;;;;;;;93.65;34.70;;;-0.60;99.90;;;;;;5056080;28;20363;-80
2022/12/03 11:53:15;;;;;;;93.72;33.30;;;-0.60;99.90;;;;;;5056243;28;20045;-80
2022/12/03 11:55:50;;;;;;;109.70;35.85;;;-0.60;99.90;;;;;;5057548;28;20036;-80
2022/12/03 11:58:28;;;;;;;99.03;34.60;;;-0.50;99.90;;;;;;5047084;28;20025;-81
2022/12/03 12:00:56;;;;;;;80.28;32.05;;;-0.40;99.90;;;;;;5059245;28;20078;-79
2022/12/03 12:03:25;;;;;;;95.85;35.72;;;-0.40;99.90;;;;;;5065985;28;20048;-79
2022/12/03 12:06:06;;;;;;;91.18;32.60;;;-0.40;99.90;;;;;;5058211;28;20036;-79
2022/12/03 12:08:34;;;;;;;84.53;31.98;;;-0.30;99.90;;;;;;5049119;28;20903;-79
2022/12/03 12:11:01;;;;;;;96.63;36.55;;;-0.40;99.90;;;;;;5066541;28;20048;-80
2022/12/03 12:13:47;;;;;;;94.20;34.75;;;-0.40;99.90;;;;;;5071426;28;20016;-79
2022/12/03 12:16:53;;;;;;;95.43;36.33;;;-0.40;99.90;;;;;;5065990;28;20039;-80
2022/12/03 12:22:26;;;;;;;79.65;30.38;;;-0.40;99.90;;;;;;5057171;28;20040;-79
2022/12/03 12:24:55;;;;;;;96.78;34.30;;;-0.30;99.90;;;;;;5052985;28;20029;-80
2022/12/03 12:27:30;;;;;;;101.55;35.47;;;-0.30;99.90;;;;;;5054883;28;20186;-79
2022/12/03 12:29:58;;;;;;;106.22;37.90;;;-0.30;99.90;;;;;;5062643;28;20087;-79
2022/12/03 12:32:30;;;;;;;109.45;41.33;;;-0.30;99.90;;;;;;5064270;28;20437;-79
2022/12/03 12:35:25;;;;;;;110.25;38.38;;;-0.30;99.90;;;;;;5051030;28;20090;-79
2022/12/03 12:37:54;;;;;;;106.18;37.40;;;-0.40;99.90;;;;;;5052554;28;20048;-80
2022/12/03 12:40:26;;;;;;;110.82;38.83;;;-0.40;99.90;;;;;;5065814;28;20017;-80
2022/12/03 12:43:15;;;;;;;112.43;39.15;;;-0.40;99.90;;;;;;5066463;28;20430;-80
2022/12/03 12:45:42;;;;;;;112.57;38.58;;;-0.50;99.90;;;;;;5070370;28;20044;-80
2022/12/03 12:48:13;;;;;;;122.88;43.20;;;-0.50;99.90;;;;;;5064519;28;20025;-79
2022/12/03 12:50:41;;;;;;;103.93;40.30;;;-0.60;99.90;;;;;;5067832;28;20024;-80
2022/12/03 12:53:06;;;;;;;121.25;43.72;;;-0.60;99.90;;;;;;5072193;28;20031;-79
2022/12/03 12:55:32;;;;;;;118.20;40.20;;;-0.60;99.90;;;;;;5070313;28;20088;-79
2022/12/03 12:58:02;;;;;;;114.10;41.22;;;-0.60;99.90;;;;;;5058552;28;20116;-80
2022/12/03 13:00:28;;;;;;;111.10;39.72;;;-0.70;99.90;;;;;;5070464;28;20025;-78